METAR Data
IDs: Format: Raw Decoded Include TAF

Data at: 0617 UTC 24 Sep 2018

KBIE 240555Z AUTO 16005KT 10SM CLR 16/13 A2993 RMK AO2 T01600130 10240 20160 402670100
KBIE 240535Z AUTO 16005KT 10SM CLR 16/13 A2993 RMK AO2 T01610130
KBIE 240515Z AUTO 16006KT 10SM CLR 17/13 A2994 RMK AO2 T01650130
KBIE 240455Z AUTO 15007KT 10SM CLR 17/13 A2995 RMK AO2 T01690130
KBIE 240435Z AUTO 16007KT 10SM CLR 17/13 A2995 RMK AO2 T01700130
KBIE 240415Z AUTO 16008KT 10SM CLR 17/13 A2995 RMK AO2 T01720131
KBIE 240355Z AUTO 15007KT 10SM CLR 18/13 A2995 RMK AO2 T01760131
KBIE 240335Z AUTO 15007KT 10SM CLR 18/13 A2995 RMK AO2 T01790132
KBIE 240315Z AUTO 16006KT 10SM CLR 18/13 A2994 RMK AO2 T01810131
KBIE 240255Z AUTO 14004KT 10SM CLR 18/13 A2994 RMK AO2 T01820130
KBIE 240235Z AUTO 14005KT 10SM CLR 19/13 A2995 RMK AO2 T01940131
KBIE 240215Z AUTO 15007KT 10SM CLR 20/13 A2994 RMK AO2 T02000132
KBIE 240155Z AUTO 15007KT 10SM CLR 20/13 A2994 RMK AO2 T02010132
KBIE 240135Z AUTO 15006KT 10SM CLR 21/14 A2994 RMK AO2 T02070135
KBIE 240115Z AUTO 15007KT 10SM CLR 21/14 A2993 RMK AO2 T02130137
KBIE 240055Z AUTO 15006KT 10SM CLR 22/14 A2993 RMK AO2 T02170137
KBIE 240035Z AUTO 15005KT 10SM CLR 23/14 A2993 RMK AO2 T02250136
KBIE 240015Z AUTO 15006KT 10SM CLR 23/14 A2993 RMK AO2 T02320136
KBIE 232355Z AUTO 17007KT 10SM CLR 24/14 A2993 RMK AO2 T02410140 10267 20241
KBIE 232335Z AUTO 18010KT 10SM CLR 25/14 A2993 RMK AO2 T02490139
KBIE 232315Z AUTO 17011KT 10SM CLR 25/14 A2993 RMK AO2 T02530139
KBIE 232255Z AUTO 18010G14KT 10SM CLR 26/14 A2993 RMK AO2 T02590143
KBIE 232235Z AUTO 18012KT 10SM CLR 26/13 A2994 RMK AO2 T02610133
KBIE 232215Z AUTO 18011G17KT 10SM CLR 26/14 A2994 RMK AO2 T02630139
KBIE 232155Z AUTO 19014KT 10SM CLR 27/14 A2994 RMK AO2 T02650143
KBIE 232135Z AUTO 18010KT 10SM CLR 27/15 A2995 RMK AO2 T02650150
KBIE 232115Z AUTO 19012G16KT 10SM CLR 27/15 A2995 RMK AO2 T02660148
KBIE 232055Z AUTO 17014KT 10SM CLR 26/15 A2996 RMK AO2 T02620148
KBIE 232040Z AUTO 16010G16KT 10SM CLR 26/15 A2996 RMK AO2 T02620152
KBIE 232015Z AUTO 15010G14KT 10SM CLR 26/15 A2997 RMK AO2 T02620149
KBIE 231955Z AUTO 16011G17KT 10SM CLR 26/16 A2998 RMK AO2 T02610161
KBIE 231935Z AUTO 19011G14KT 10SM CLR 26/16 A2999 RMK AO2 T02610160
KBIE 231915Z AUTO 19010KT 10SM CLR 26/16 A2999 RMK AO2 T02560157
KBIE 231855Z AUTO 16012KT 10SM CLR 26/16 A3000 RMK AO2 T02560158
KBIE 231835Z AUTO 17010G15KT 10SM CLR 25/16 A3001 RMK AO2 T02520158
KBIE 231815Z AUTO 19010KT 10SM CLR 25/15 A3002 RMK AO2 T02480153
KBIE 231755Z AUTO 21008KT 10SM CLR 24/15 A3003 RMK AO2 T02440151 10244 20106
KBIE 231735Z AUTO 17011G14KT 10SM CLR 24/16 A3004 RMK AO2 T02410159
KBIE 231715Z AUTO 19010G14KT 10SM CLR 24/15 A3004 RMK AO2 T02350154
KBIE 231655Z AUTO 20007KT 10SM CLR 23/16 A3005 RMK AO2 T02300155
KBIE 231635Z AUTO 17007KT 10SM CLR 23/16 A3006 RMK AO2 T02250155
KBIE 231615Z AUTO 19008KT 10SM CLR 22/15 A3006 RMK AO2 T02160150
KBIE 231555Z AUTO 18009KT 10SM CLR 21/15 A3006 RMK AO2 T02080150
KBIE 231535Z AUTO 19010KT 160V220 10SM CLR 20/15 A3006 RMK AO2 T02020148
KBIE 231515Z AUTO 19011KT 10SM CLR 19/15 A3006 RMK AO2 T01940145
KBIE 231455Z AUTO 20010KT 10SM CLR 18/14 A3007 RMK AO2 T01810140
KBIE 231435Z AUTO 18007KT 10SM CLR 17/13 A3006 RMK AO2 T01710133
KBIE 231415Z AUTO 17008KT 10SM CLR 16/13 A3006 RMK AO2 T01610129
KBIE 231355Z AUTO 17006KT 10SM CLR 15/12 A3006 RMK AO2 T01460121
KBIE 231335Z AUTO 16005KT 10SM CLR 14/11 A3006 RMK AO2 T01350114
KBIE 231315Z AUTO 17005KT 10SM CLR 13/11 A3006 RMK AO2 T01270110
KBIE 231255Z AUTO 14003KT 10SM CLR 11/10 A3006 RMK AO2 T01140102
KBIE 231235Z AUTO 00000KT 10SM CLR 11/10 A3006 RMK AO2 T01080097
KBIE 231215Z AUTO 12003KT 10SM CLR 11/10 A3006 RMK AO2 T01070096
KBIE 231155Z AUTO 00000KT 10SM CLR 11/10 A3006 RMK AO2 T01080098 10135 20100
KBIE 231135Z AUTO 14003KT 10SM CLR 10/10 A3006 RMK AO2 T01020095
KBIE 231115Z AUTO 11003KT 10SM CLR 10/10 A3006 RMK AO2 T01040095
KBIE 231055Z AUTO 00000KT 10SM CLR 11/10 A3005 RMK AO2 T01050095
KBIE 231035Z AUTO 00000KT 10SM CLR 11/10 A3005 RMK AO2 T01100097
KBIE 231015Z AUTO 00000KT 10SM CLR 10/09 A3005 RMK AO2 T01000090
KBIE 230955Z AUTO 00000KT 10SM CLR 10/09 A3005 RMK AO2 T01020093
KBIE 230935Z AUTO 00000KT 10SM CLR 11/09 A3005 RMK AO2 T01080091
KBIE 230915Z AUTO 00000KT 10SM CLR 11/09 A3005 RMK AO2 T01060090
KBIE 230855Z AUTO 00000KT 10SM CLR 11/09 A3006 RMK AO2 T01120094
KBIE 230835Z AUTO 00000KT 10SM CLR 11/09 A3006 RMK AO2 T01140094
KBIE 230815Z AUTO 20003KT 10SM CLR 11/09 A3006 RMK AO2 T01140094
KBIE 230755Z AUTO 19003KT 10SM CLR 11/09 A3006 RMK AO2 T01120093
KBIE 230735Z AUTO 00000KT 10SM CLR 12/09 A3006 RMK AO2 T01220094
KBIE 230715Z AUTO 00000KT 10SM CLR 12/10 A3006 RMK AO2 T01240095
KBIE 230655Z AUTO 17005KT 10SM CLR 13/09 A3006 RMK AO2 T01260094
KBIE 230635Z AUTO 16004KT 10SM CLR 14/09 A3007 RMK AO2 T01350094
KBIE 230615Z AUTO 16006KT 10SM CLR 14/09 A3007 RMK AO2 T01350093
KBIE 230555Z AUTO 16005KT 10SM CLR 13/10 A3008 RMK AO2 T01330095 10210 20124 402290067
KBIE 230535Z AUTO 17005KT 10SM CLR 13/10 A3008 RMK AO2 T01250095
KBIE 230515Z AUTO 17005KT 10SM CLR 14/10 A3008 RMK AO2 T01350095
KBIE 230455Z AUTO 16003KT 10SM CLR 14/10 A3009 RMK AO2 T01350095
KBIE 230435Z AUTO 16004KT 10SM CLR 14/10 A3009 RMK AO2 T01380096
KBIE 230415Z AUTO 17004KT 10SM CLR 14/10 A3009 RMK AO2 T01380097
KBIE 230355Z AUTO 17005KT 10SM CLR 15/10 A3009 RMK AO2 T01470096
KBIE 230335Z AUTO 16004KT 10SM CLR 15/10 A3009 RMK AO2 T01490100
KBIE 230315Z AUTO 16006KT 10SM CLR 15/10 A3010 RMK AO2 T01520100
KBIE 230255Z AUTO 15006KT 10SM CLR 16/10 A3010 RMK AO2 T01550101
KBIE 230235Z AUTO 15005KT 10SM CLR 16/10 A3010 RMK AO2 T01560100
KBIE 230215Z AUTO 14004KT 10SM CLR 16/10 A3010 RMK AO2 T01600101
KBIE 230155Z AUTO 14003KT 10SM CLR 16/10 A3010 RMK AO2 T01640101
KBIE 230135Z AUTO 15004KT 10SM CLR 17/10 A3009 RMK AO2 T01670101
KBIE 230115Z AUTO 15004KT 10SM CLR 18/10 A3009 RMK AO2 T01780095
KBIE 230055Z AUTO 16005KT 10SM CLR 18/10 A3009 RMK AO2 T01800095
KBIE 230035Z AUTO 15005KT 10SM CLR 19/10 A3009 RMK AO2 T01900095
KBIE 230015Z AUTO 16004KT 10SM CLR 20/10 A3010 RMK AO2 T01950096
KBIE 222355Z AUTO 16007KT 10SM CLR 21/09 A3009 RMK AO2 T02100093 10229 20186
KBIE 222335Z AUTO 15007KT 10SM CLR 22/09 A3009 RMK AO2 T02160094
KBIE 222315Z AUTO 16007KT 10SM CLR 22/09 A3009 RMK AO2 T02210092
KBIE 222255Z AUTO 17009KT 10SM CLR 22/09 A3010 RMK AO2 T02220094
KBIE 222235Z AUTO 16008KT 10SM CLR 23/10 A3010 RMK AO2 T02260095
KBIE 222215Z AUTO 14008KT 10SM CLR 23/10 A3010 RMK AO2 T02280097
KBIE 222155Z AUTO 15008KT 10SM CLR 23/10 A3011 RMK AO2 T02290096
KBIE 222135Z AUTO 17006KT 10SM CLR 23/10 A3012 RMK AO2 T02250098
KBIE 222115Z AUTO 17005KT 10SM CLR 22/10 A3013 RMK AO2 T02220096
KBIE 222055Z AUTO 15004KT 10SM CLR 22/11 A3013 RMK AO2 T02230106
KBIE 222035Z AUTO 00000KT 10SM CLR 22/10 A3015 RMK AO2 T02200099
KBIE 222015Z AUTO 14003KT 10SM CLR 21/10 A3015 RMK AO2 T02140096
KBIE 221955Z AUTO 15007KT 10SM CLR 21/09 A3016 RMK AO2 T02110093
KBIE 221935Z AUTO 17004KT 10SM CLR 21/09 A3018 RMK AO2 T02070093
KBIE 221915Z AUTO 11005KT 10SM CLR 21/10 A3019 RMK AO2 T02060096
KBIE 221855Z AUTO 00000KT 10SM CLR 20/09 A3020 RMK AO2 T01980093
KBIE 221835Z AUTO 00000KT 10SM CLR 20/09 A3021 RMK AO2 T01950094